sensor_id;sensor_type;location;lat;lon;timestamp;temperature;humidity
66835;HTU21D;53743;51.100;5.874;2024-03-25T00:00:52;6.06;87.39
66835;HTU21D;53743;51.100;5.874;2024-03-25T00:01:53;6.08;87.24
66835;HTU21D;53743;51.100;5.874;2024-03-25T00:02:55;6.07;87.14
66835;HTU21D;53743;51.100;5.874;2024-03-25T00:03:56;6.09;87.02
66835;HTU21D;53743;51.100;5.874;2024-03-25T00:04:57;6.09;86.90
66835;HTU21D;53743;51.100;5.874;2024-03-25T00:05:58;6.09;87.15
66835;HTU21D;53743;51.100;5.874;2024-03-25T00:07:00;6.10;86.81
66835;HTU21D;53743;51.100;5.874;2024-03-25T00:08:01;6.06;87.35
66835;HTU21D;53743;51.100;5.874;2024-03-25T00:09:03;6.06;87.29
66835;HTU21D;53743;51.100;5.874;2024-03-25T00:10:06;6.06;86.99
66835;HTU21D;53743;51.100;5.874;2024-03-25T00:11:09;6.02;87.40
66835;HTU21D;53743;51.100;5.874;2024-03-25T00:12:10;5.99;87.69
66835;HTU21D;53743;51.100;5.874;2024-03-25T00:13:11;5.97;87.99
66835;HTU21D;53743;51.100;5.874;2024-03-25T00:14:11;5.96;87.49
66835;HTU21D;53743;51.100;5.874;2024-03-25T00:15:15;5.97;87.52
66835;HTU21D;53743;51.100;5.874;2024-03-25T00:16:16;5.92;87.70
66835;HTU21D;53743;51.100;5.874;2024-03-25T00:17:17;5.93;87.68
66835;HTU21D;53743;51.100;5.874;2024-03-25T00:18:20;5.93;87.47
66835;HTU21D;53743;51.100;5.874;2024-03-25T00:19:22;5.95;87.38
66835;HTU21D;53743;51.100;5.874;2024-03-25T00:20:23;5.95;87.32
66835;HTU21D;53743;51.100;5.874;2024-03-25T00:21:24;5.89;87.35
66835;HTU21D;53743;51.100;5.874;2024-03-25T00:22:25;5.85;87.89
66835;HTU21D;53743;51.100;5.874;2024-03-25T00:23:27;5.84;88.21
66835;HTU21D;53743;51.100;5.874;2024-03-25T00:24:28;5.86;87.71
66835;HTU21D;53743;51.100;5.874;2024-03-25T00:25:29;5.82;87.72
66835;HTU21D;53743;51.100;5.874;2024-03-25T00:26:30;5.83;87.87
66835;HTU21D;53743;51.100;5.874;2024-03-25T00:27:32;5.83;87.95
66835;HTU21D;53743;51.100;5.874;2024-03-25T00:28:34;5.85;87.80
66835;HTU21D;53743;51.100;5.874;2024-03-25T00:29:35;5.81;87.88
66835;HTU21D;53743;51.100;5.874;2024-03-25T00:30:37;5.82;87.96
66835;HTU21D;53743;51.100;5.874;2024-03-25T00:31:39;5.82;87.86
66835;HTU21D;53743;51.100;5.874;2024-03-25T00:32:40;5.82;87.65
66835;HTU21D;53743;51.100;5.874;2024-03-25T00:33:41;5.81;87.86
66835;HTU21D;53743;51.100;5.874;2024-03-25T00:34:42;5.81;87.67
66835;HTU21D;53743;51.100;5.874;2024-03-25T00:35:44;5.81;88.11
66835;HTU21D;53743;51.100;5.874;2024-03-25T00:36:46;5.80;87.72
66835;HTU21D;53743;51.100;5.874;2024-03-25T00:37:47;5.77;88.22
66835;HTU21D;53743;51.100;5.874;2024-03-25T00:38:48;5.76;88.20
66835;HTU21D;53743;51.100;5.874;2024-03-25T00:39:49;5.77;87.94
66835;HTU21D;53743;51.100;5.874;2024-03-25T00:40:52;5.74;88.52
66835;HTU21D;53743;51.100;5.874;2024-03-25T00:41:54;5.74;88.02
66835;HTU21D;53743;51.100;5.874;2024-03-25T00:42:55;5.77;88.26
66835;HTU21D;53743;51.100;5.874;2024-03-25T00:43:56;5.78;87.80
66835;HTU21D;53743;51.100;5.874;2024-03-25T00:44:58;5.72;88.32
66835;HTU21D;53743;51.100;5.874;2024-03-25T00:46:00;5.74;88.32
66835;HTU21D;53743;51.100;5.874;2024-03-25T00:47:01;5.76;87.97
66835;HTU21D;53743;51.100;5.874;2024-03-25T00:48:03;5.76;88.37
66835;HTU21D;53743;51.100;5.874;2024-03-25T00:49:05;5.77;88.02
66835;HTU21D;53743;51.100;5.874;2024-03-25T00:50:07;5.74;88.11
66835;HTU21D;53743;51.100;5.874;2024-03-25T00:51:09;5.72;88.16
66835;HTU21D;53743;51.100;5.874;2024-03-25T00:52:12;5.71;88.30
66835;HTU21D;53743;51.100;5.874;2024-03-25T00:53:12;5.67;88.78
66835;HTU21D;53743;51.100;5.874;2024-03-25T00:54:14;5.65;89.21
66835;HTU21D;53743;51.100;5.874;2024-03-25T00:55:15;5.68;88.81
66835;HTU21D;53743;51.100;5.874;2024-03-25T00:56:17;5.65;89.08
66835;HTU21D;53743;51.100;5.874;2024-03-25T00:57:18;5.66;88.95
66835;HTU21D;53743;51.100;5.874;2024-03-25T00:58:19;5.63;89.21
66835;HTU21D;53743;51.100;5.874;2024-03-25T00:59:20;5.67;88.73
66835;HTU21D;53743;51.100;5.874;2024-03-25T01:00:22;5.69;88.74
66835;HTU21D;53743;51.100;5.874;2024-03-25T01:01:25;5.68;88.89
66835;HTU21D;53743;51.100;5.874;2024-03-25T01:02:26;5.61;89.22
66835;HTU21D;53743;51.100;5.874;2024-03-25T01:03:29;5.63;89.07
66835;HTU21D;53743;51.100;5.874;2024-03-25T01:04:30;5.61;88.96
66835;HTU21D;53743;51.100;5.874;2024-03-25T01:05:31;5.55;0.00
66835;HTU21D;53743;51.100;5.874;2024-03-25T01:06:32;5.51;89.91
66835;HTU21D;53743;51.100;5.874;2024-03-25T01:07:34;5.50;89.81
66835;HTU21D;53743;51.100;5.874;2024-03-25T01:08:35;5.48;89.92
66835;HTU21D;53743;51.100;5.874;2024-03-25T01:09:36;5.49;90.01
66835;HTU21D;53743;51.100;5.874;2024-03-25T01:10:37;5.49;90.01
66835;HTU21D;53743;51.100;5.874;2024-03-25T01:11:39;5.50;89.70
66835;HTU21D;53743;51.100;5.874;2024-03-25T01:12:40;5.49;89.95
66835;HTU21D;53743;51.100;5.874;2024-03-25T01:13:41;5.53;89.54
66835;HTU21D;53743;51.100;5.874;2024-03-25T01:14:42;5.50;89.54
66835;HTU21D;53743;51.100;5.874;2024-03-25T01:15:44;5.43;90.07
66835;HTU21D;53743;51.100;5.874;2024-03-25T01:16:46;5.45;89.87
66835;HTU21D;53743;51.100;5.874;2024-03-25T01:17:48;5.41;90.33
66835;HTU21D;53743;51.100;5.874;2024-03-25T01:18:49;5.41;90.08
66835;HTU21D;53743;51.100;5.874;2024-03-25T01:19:51;5.39;90.30
66835;HTU21D;53743;51.100;5.874;2024-03-25T01:20:51;5.38;90.34
66835;HTU21D;53743;51.100;5.874;2024-03-25T01:21:52;5.39;90.13
66835;HTU21D;53743;51.100;5.874;2024-03-25T01:22:54;5.39;90.21
66835;HTU21D;53743;51.100;5.874;2024-03-25T01:23:55;5.41;90.02
66835;HTU21D;53743;51.100;5.874;2024-03-25T01:24:56;5.40;89.96
66835;HTU21D;53743;51.100;5.874;2024-03-25T01:25:58;5.39;89.89
66835;HTU21D;53743;51.100;5.874;2024-03-25T01:27:00;5.42;90.02
66835;HTU21D;53743;51.100;5.874;2024-03-25T01:28:01;5.39;90.04
66835;HTU21D;53743;51.100;5.874;2024-03-25T01:29:02;5.40;89.94
66835;HTU21D;53743;51.100;5.874;2024-03-25T01:30:05;5.38;89.83
66835;HTU21D;53743;51.100;5.874;2024-03-25T01:31:08;5.34;90.47
66835;HTU21D;53743;51.100;5.874;2024-03-25T01:32:10;5.33;90.49
66835;HTU21D;53743;51.100;5.874;2024-03-25T01:33:14;5.35;90.33
66835;HTU21D;53743;51.100;5.874;2024-03-25T01:34:16;5.36;89.90
66835;HTU21D;53743;51.100;5.874;2024-03-25T01:35:18;5.38;89.70
66835;HTU21D;53743;51.100;5.874;2024-03-25T01:36:19;5.36;89.44
66835;HTU21D;53743;51.100;5.874;2024-03-25T01:37:20;5.31;90.28
66835;HTU21D;53743;51.100;5.874;2024-03-25T01:38:21;5.34;90.02
66835;HTU21D;53743;51.100;5.874;2024-03-25T01:39:23;5.34;89.97
66835;HTU21D;53743;51.100;5.874;2024-03-25T01:40:24;5.37;89.83
66835;HTU21D;53743;51.100;5.874;2024-03-25T01:41:26;5.38;89.80
66835;HTU21D;53743;51.100;5.874;2024-03-25T01:42:27;5.36;90.34
66835;HTU21D;53743;51.100;5.874;2024-03-25T01:43:29;5.31;90.29
66835;HTU21D;53743;51.100;5.874;2024-03-25T01:44:30;5.30;90.26
66835;HTU21D;53743;51.100;5.874;2024-03-25T01:45:33;5.32;89.99
66835;HTU21D;53743;51.100;5.874;2024-03-25T01:46:35;5.36;90.03
66835;HTU21D;53743;51.100;5.874;2024-03-25T01:47:39;5.33;89.95
66835;HTU21D;53743;51.100;5.874;2024-03-25T01:48:40;5.35;89.84
66835;HTU21D;53743;51.100;5.874;2024-03-25T01:49:41;5.36;89.94
66835;HTU21D;53743;51.100;5.874;2024-03-25T01:50:44;5.38;89.68
66835;HTU21D;53743;51.100;5.874;2024-03-25T01:51:47;5.33;90.05
66835;HTU21D;53743;51.100;5.874;2024-03-25T01:52:49;5.33;89.95
66835;HTU21D;53743;51.100;5.874;2024-03-25T01:53:52;5.30;90.16
66835;HTU21D;53743;51.100;5.874;2024-03-25T01:54:56;5.34;89.96
66835;HTU21D;53743;51.100;5.874;2024-03-25T01:55:58;5.31;89.94
66835;HTU21D;53743;51.100;5.874;2024-03-25T01:57:01;5.26;90.31
66835;HTU21D;53743;51.100;5.874;2024-03-25T01:58:05;5.23;90.69
66835;HTU21D;53743;51.100;5.874;2024-03-25T01:59:06;5.25;90.34
66835;HTU21D;53743;51.100;5.874;2024-03-25T02:00:09;5.24;90.57
66835;HTU21D;53743;51.100;5.874;2024-03-25T02:01:20;5.26;90.28
66835;HTU21D;53743;51.100;5.874;2024-03-25T02:02:22;5.25;90.37
66835;HTU21D;53743;51.100;5.874;2024-03-25T02:03:24;5.23;90.48
66835;HTU21D;53743;51.100;5.874;2024-03-25T02:04:27;5.20;90.21
66835;HTU21D;53743;51.100;5.874;2024-03-25T02:05:28;5.21;90.51
66835;HTU21D;53743;51.100;5.874;2024-03-25T02:06:30;5.22;90.49
66835;HTU21D;53743;51.100;5.874;2024-03-25T02:07:35;5.19;90.45
66835;HTU21D;53743;51.100;5.874;2024-03-25T02:08:37;5.19;90.73
66835;HTU21D;53743;51.100;5.874;2024-03-25T02:09:40;5.13;90.76
66835;HTU21D;53743;51.100;5.874;2024-03-25T02:10:42;5.16;90.81
66835;HTU21D;53743;51.100;5.874;2024-03-25T02:11:44;5.16;90.74
66835;HTU21D;53743;51.100;5.874;2024-03-25T02:13:47;5.17;90.87
66835;HTU21D;53743;51.100;5.874;2024-03-25T02:14:49;5.17;90.82
66835;HTU21D;53743;51.100;5.874;2024-03-25T02:15:51;5.18;90.79
66835;HTU21D;53743;51.100;5.874;2024-03-25T02:16:53;5.21;90.55
66835;HTU21D;53743;51.100;5.874;2024-03-25T02:17:55;5.18;90.48
66835;HTU21D;53743;51.100;5.874;2024-03-25T02:18:58;5.16;90.55
66835;HTU21D;53743;51.100;5.874;2024-03-25T02:19:59;5.17;90.73
66835;HTU21D;53743;51.100;5.874;2024-03-25T02:21:01;5.17;90.69
66835;HTU21D;53743;51.100;5.874;2024-03-25T02:22:03;5.18;90.63
66835;HTU21D;53743;51.100;5.874;2024-03-25T02:23:04;5.19;90.53
66835;HTU21D;53743;51.100;5.874;2024-03-25T02:24:09;5.12;90.58
66835;HTU21D;53743;51.100;5.874;2024-03-25T02:25:14;5.12;90.79
66835;HTU21D;53743;51.100;5.874;2024-03-25T02:26:20;5.12;90.82
66835;HTU21D;53743;51.100;5.874;2024-03-25T02:27:21;5.12;90.80
66835;HTU21D;53743;51.100;5.874;2024-03-25T02:28:22;5.11;90.53
66835;HTU21D;53743;51.100;5.874;2024-03-25T02:29:33;5.10;90.63
66835;HTU21D;53743;51.100;5.874;2024-03-25T02:30:34;5.09;90.47
66835;HTU21D;53743;51.100;5.874;2024-03-25T02:31:37;5.09;90.50
66835;HTU21D;53743;51.100;5.874;2024-03-25T02:32:38;5.11;90.50
66835;HTU21D;53743;51.100;5.874;2024-03-25T02:33:41;5.11;90.55
66835;HTU21D;53743;51.100;5.874;2024-03-25T02:34:46;5.10;90.59
66835;HTU21D;53743;51.100;5.874;2024-03-25T02:35:48;5.08;90.68
66835;HTU21D;53743;51.100;5.874;2024-03-25T02:36:50;5.06;90.84
66835;HTU21D;53743;51.100;5.874;2024-03-25T02:37:53;5.06;90.69
66835;HTU21D;53743;51.100;5.874;2024-03-25T02:38:55;5.04;90.61
66835;HTU21D;53743;51.100;5.874;2024-03-25T02:39:58;5.04;90.77
66835;HTU21D;53743;51.100;5.874;2024-03-25T02:41:02;5.04;90.74
66835;HTU21D;53743;51.100;5.874;2024-03-25T02:42:06;5.05;90.69
66835;HTU21D;53743;51.100;5.874;2024-03-25T02:43:07;5.02;90.34
66835;HTU21D;53743;51.100;5.874;2024-03-25T02:44:09;5.00;90.77
66835;HTU21D;53743;51.100;5.874;2024-03-25T02:45:10;5.01;90.79
66835;HTU21D;53743;51.100;5.874;2024-03-25T02:46:12;5.01;90.63
66835;HTU21D;53743;51.100;5.874;2024-03-25T02:47:13;5.01;90.66
66835;HTU21D;53743;51.100;5.874;2024-03-25T02:48:14;5.00;90.65
66835;HTU21D;53743;51.100;5.874;2024-03-25T02:49:16;5.03;90.84
66835;HTU21D;53743;51.100;5.874;2024-03-25T02:50:18;5.03;90.69
66835;HTU21D;53743;51.100;5.874;2024-03-25T02:51:19;5.03;90.75
66835;HTU21D;53743;51.100;5.874;2024-03-25T02:52:20;5.06;90.66
66835;HTU21D;53743;51.100;5.874;2024-03-25T02:53:21;5.04;90.48
66835;HTU21D;53743;51.100;5.874;2024-03-25T02:54:23;5.03;90.80
66835;HTU21D;53743;51.100;5.874;2024-03-25T02:55:24;5.01;90.82
66835;HTU21D;53743;51.100;5.874;2024-03-25T02:56:25;4.95;90.64
66835;HTU21D;53743;51.100;5.874;2024-03-25T02:57:27;4.94;90.82
66835;HTU21D;53743;51.100;5.874;2024-03-25T02:58:28;4.95;91.03
66835;HTU21D;53743;51.100;5.874;2024-03-25T02:59:30;4.96;90.95
66835;HTU21D;53743;51.100;5.874;2024-03-25T03:00:32;4.96;91.11
66835;HTU21D;53743;51.100;5.874;2024-03-25T03:01:33;4.96;90.93
66835;HTU21D;53743;51.100;5.874;2024-03-25T03:02:34;4.93;90.91
66835;HTU21D;53743;51.100;5.874;2024-03-25T03:03:36;4.94;90.94
66835;HTU21D;53743;51.100;5.874;2024-03-25T03:04:37;4.95;90.69
66835;HTU21D;53743;51.100;5.874;2024-03-25T03:05:38;4.95;90.96
66835;HTU21D;53743;51.100;5.874;2024-03-25T03:06:39;4.95;90.90
66835;HTU21D;53743;51.100;5.874;2024-03-25T03:07:41;4.94;90.76
66835;HTU21D;53743;51.100;5.874;2024-03-25T03:08:41;4.93;90.69
66835;HTU21D;53743;51.100;5.874;2024-03-25T03:09:43;4.93;90.61
66835;HTU21D;53743;51.100;5.874;2024-03-25T03:10:44;4.92;90.68
66835;HTU21D;53743;51.100;5.874;2024-03-25T03:11:46;4.91;90.50
66835;HTU21D;53743;51.100;5.874;2024-03-25T03:12:48;4.91;90.44
66835;HTU21D;53743;51.100;5.874;2024-03-25T03:13:49;4.88;90.44
66835;HTU21D;53743;51.100;5.874;2024-03-25T03:14:52;4.88;90.43
66835;HTU21D;53743;51.100;5.874;2024-03-25T03:15:53;4.87;90.43
66835;HTU21D;53743;51.100;5.874;2024-03-25T03:16:54;4.87;90.42
66835;HTU21D;53743;51.100;5.874;2024-03-25T03:17:58;4.87;90.27
66835;HTU21D;53743;51.100;5.874;2024-03-25T03:19:00;4.87;90.26
66835;HTU21D;53743;51.100;5.874;2024-03-25T03:20:01;4.87;90.23
66835;HTU21D;53743;51.100;5.874;2024-03-25T03:21:02;4.86;90.21
66835;HTU21D;53743;51.100;5.874;2024-03-25T03:22:03;4.88;90.19
66835;HTU21D;53743;51.100;5.874;2024-03-25T03:23:05;4.90;89.93
66835;HTU21D;53743;51.100;5.874;2024-03-25T03:24:06;4.88;89.83
66835;HTU21D;53743;51.100;5.874;2024-03-25T03:25:08;4.88;89.77
66835;HTU21D;53743;51.100;5.874;2024-03-25T03:26:09;4.88;89.68
66835;HTU21D;53743;51.100;5.874;2024-03-25T03:27:11;4.88;89.57
66835;HTU21D;53743;51.100;5.874;2024-03-25T03:28:13;4.89;89.50
66835;HTU21D;53743;51.100;5.874;2024-03-25T03:29:15;4.87;89.48
66835;HTU21D;53743;51.100;5.874;2024-03-25T03:30:16;4.87;89.46
66835;HTU21D;53743;51.100;5.874;2024-03-25T03:31:18;4.86;89.37
66835;HTU21D;53743;51.100;5.874;2024-03-25T03:32:19;4.84;89.22
66835;HTU21D;53743;51.100;5.874;2024-03-25T03:33:20;4.84;89.34
66835;HTU21D;53743;51.100;5.874;2024-03-25T03:34:21;4.83;89.23
66835;HTU21D;53743;51.100;5.874;2024-03-25T03:35:23;4.82;89.22
66835;HTU21D;53743;51.100;5.874;2024-03-25T03:36:24;4.77;89.32
66835;HTU21D;53743;51.100;5.874;2024-03-25T03:37:25;4.77;89.34
66835;HTU21D;53743;51.100;5.874;2024-03-25T03:38:26;4.76;89.42
66835;HTU21D;53743;51.100;5.874;2024-03-25T03:39:28;4.77;89.37
66835;HTU21D;53743;51.100;5.874;2024-03-25T03:40:32;4.77;89.42
66835;HTU21D;53743;51.100;5.874;2024-03-25T03:41:33;4.76;89.36
66835;HTU21D;53743;51.100;5.874;2024-03-25T03:42:34;4.77;89.48
66835;HTU21D;53743;51.100;5.874;2024-03-25T03:43:37;4.77;89.38
66835;HTU21D;53743;51.100;5.874;2024-03-25T03:44:38;4.76;89.45
66835;HTU21D;53743;51.100;5.874;2024-03-25T03:45:39;4.76;89.37
66835;HTU21D;53743;51.100;5.874;2024-03-25T03:46:40;4.74;89.54
66835;HTU21D;53743;51.100;5.874;2024-03-25T03:47:42;4.71;89.66
66835;HTU21D;53743;51.100;5.874;2024-03-25T03:48:43;4.72;89.64
66835;HTU21D;53743;51.100;5.874;2024-03-25T03:49:45;4.72;89.90
66835;HTU21D;53743;51.100;5.874;2024-03-25T03:50:46;4.72;89.75
66835;HTU21D;53743;51.100;5.874;2024-03-25T03:51:47;4.71;89.82
66835;HTU21D;53743;51.100;5.874;2024-03-25T03:52:49;4.73;89.93
66835;HTU21D;53743;51.100;5.874;2024-03-25T03:53:50;4.73;89.73
66835;HTU21D;53743;51.100;5.874;2024-03-25T03:54:50;4.71;89.81
66835;HTU21D;53743;51.100;5.874;2024-03-25T03:55:55;4.71;89.88
66835;HTU21D;53743;51.100;5.874;2024-03-25T03:56:58;4.71;89.87
66835;HTU21D;53743;51.100;5.874;2024-03-25T03:57:59;4.69;89.79
66835;HTU21D;53743;51.100;5.874;2024-03-25T03:59:01;4.71;89.89
66835;HTU21D;53743;51.100;5.874;2024-03-25T04:00:05;4.69;89.76
66835;HTU21D;53743;51.100;5.874;2024-03-25T04:01:16;4.69;89.79
66835;HTU21D;53743;51.100;5.874;2024-03-25T04:02:18;4.68;89.72
66835;HTU21D;53743;51.100;5.874;2024-03-25T04:03:19;4.66;89.70
66835;HTU21D;53743;51.100;5.874;2024-03-25T04:04:21;4.66;89.72
66835;HTU21D;53743;51.100;5.874;2024-03-25T04:05:22;4.65;89.71
66835;HTU21D;53743;51.100;5.874;2024-03-25T04:06:22;4.66;89.64
66835;HTU21D;53743;51.100;5.874;2024-03-25T04:07:23;4.66;89.57
66835;HTU21D;53743;51.100;5.874;2024-03-25T04:08:27;4.67;89.48
66835;HTU21D;53743;51.100;5.874;2024-03-25T04:09:28;4.66;89.34
66835;HTU21D;53743;51.100;5.874;2024-03-25T04:10:29;4.66;89.35
66835;HTU21D;53743;51.100;5.874;2024-03-25T04:11:31;4.65;89.25
66835;HTU21D;53743;51.100;5.874;2024-03-25T04:12:32;4.65;89.21
66835;HTU21D;53743;51.100;5.874;2024-03-25T04:13:34;4.63;89.29
66835;HTU21D;53743;51.100;5.874;2024-03-25T04:14:36;4.63;89.26
66835;HTU21D;53743;51.100;5.874;2024-03-25T04:15:40;4.62;89.09
66835;HTU21D;53743;51.100;5.874;2024-03-25T04:16:42;4.61;88.99
66835;HTU21D;53743;51.100;5.874;2024-03-25T04:17:43;4.61;88.94
66835;HTU21D;53743;51.100;5.874;2024-03-25T04:18:47;4.60;88.97
66835;HTU21D;53743;51.100;5.874;2024-03-25T04:19:50;4.58;88.93
66835;HTU21D;53743;51.100;5.874;2024-03-25T04:20:51;4.60;88.98
66835;HTU21D;53743;51.100;5.874;2024-03-25T04:21:53;4.58;88.94
66835;HTU21D;53743;51.100;5.874;2024-03-25T04:22:55;4.56;88.89
66835;HTU21D;53743;51.100;5.874;2024-03-25T04:23:56;4.58;88.83
66835;HTU21D;53743;51.100;5.874;2024-03-25T04:24:58;4.58;88.79
66835;HTU21D;53743;51.100;5.874;2024-03-25T04:26:01;4.56;88.73
66835;HTU21D;53743;51.100;5.874;2024-03-25T04:27:06;4.56;88.63
66835;HTU21D;53743;51.100;5.874;2024-03-25T04:28:07;4.54;88.65
66835;HTU21D;53743;51.100;5.874;2024-03-25T04:29:09;4.54;88.64
66835;HTU21D;53743;51.100;5.874;2024-03-25T04:30:12;4.56;88.62
66835;HTU21D;53743;51.100;5.874;2024-03-25T04:31:13;4.54;88.54
66835;HTU21D;53743;51.100;5.874;2024-03-25T04:32:14;4.54;88.54
66835;HTU21D;53743;51.100;5.874;2024-03-25T04:33:16;4.54;88.55
66835;HTU21D;53743;51.100;5.874;2024-03-25T04:34:17;4.54;88.49
66835;HTU21D;53743;51.100;5.874;2024-03-25T04:35:19;4.51;88.47
66835;HTU21D;53743;51.100;5.874;2024-03-25T04:36:20;4.51;88.42
66835;HTU21D;53743;51.100;5.874;2024-03-25T04:37:23;4.49;88.41
66835;HTU21D;53743;51.100;5.874;2024-03-25T04:38:24;4.49;88.34
66835;HTU21D;53743;51.100;5.874;2024-03-25T04:39:25;4.49;88.27
66835;HTU21D;53743;51.100;5.874;2024-03-25T04:40:26;4.47;88.15
66835;HTU21D;53743;51.100;5.874;2024-03-25T04:41:27;4.46;0.00
66835;HTU21D;53743;51.100;5.874;2024-03-25T04:42:28;4.45;88.04
66835;HTU21D;53743;51.100;5.874;2024-03-25T04:43:30;4.45;87.94
66835;HTU21D;53743;51.100;5.874;2024-03-25T04:44:31;4.42;87.91
66835;HTU21D;53743;51.100;5.874;2024-03-25T04:45:33;4.42;87.84
66835;HTU21D;53743;51.100;5.874;2024-03-25T04:46:34;4.43;87.75
66835;HTU21D;53743;51.100;5.874;2024-03-25T04:47:35;4.39;87.77
66835;HTU21D;53743;51.100;5.874;2024-03-25T04:48:36;4.39;87.74
66835;HTU21D;53743;51.100;5.874;2024-03-25T04:49:37;4.39;87.77
66835;HTU21D;53743;51.100;5.874;2024-03-25T04:50:39;4.39;87.80
66835;HTU21D;53743;51.100;5.874;2024-03-25T04:51:40;4.37;87.83
66835;HTU21D;53743;51.100;5.874;2024-03-25T04:52:41;4.36;87.82
66835;HTU21D;53743;51.100;5.874;2024-03-25T04:53:42;4.37;87.86
66835;HTU21D;53743;51.100;5.874;2024-03-25T04:54:43;4.37;87.86
66835;HTU21D;53743;51.100;5.874;2024-03-25T04:55:45;4.35;87.85
66835;HTU21D;53743;51.100;5.874;2024-03-25T04:56:46;4.36;87.73
66835;HTU21D;53743;51.100;5.874;2024-03-25T04:57:47;4.36;87.68
66835;HTU21D;53743;51.100;5.874;2024-03-25T04:58:48;4.36;87.61
66835;HTU21D;53743;51.100;5.874;2024-03-25T04:59:49;0.00;87.56
66835;HTU21D;53743;51.100;5.874;2024-03-25T05:00:52;4.34;87.46
66835;HTU21D;53743;51.100;5.874;2024-03-25T05:01:53;4.34;87.44
66835;HTU21D;53743;51.100;5.874;2024-03-25T05:02:54;4.32;87.44
66835;HTU21D;53743;51.100;5.874;2024-03-25T05:03:55;4.32;87.44
66835;HTU21D;53743;51.100;5.874;2024-03-25T05:04:56;4.30;87.44
66835;HTU21D;53743;51.100;5.874;2024-03-25T05:05:57;4.29;87.40
66835;HTU21D;53743;51.100;5.874;2024-03-25T05:06:58;4.28;87.37
66835;HTU21D;53743;51.100;5.874;2024-03-25T05:07:59;4.29;87.35
66835;HTU21D;53743;51.100;5.874;2024-03-25T05:09:01;4.27;87.29
66835;HTU21D;53743;51.100;5.874;2024-03-25T05:10:02;0.00;87.26
66835;HTU21D;53743;51.100;5.874;2024-03-25T05:11:04;4.26;87.21
66835;HTU21D;53743;51.100;5.874;2024-03-25T05:12:05;4.26;87.15
66835;HTU21D;53743;51.100;5.874;2024-03-25T05:13:06;4.24;87.13
66835;HTU21D;53743;51.100;5.874;2024-03-25T05:14:07;4.23;87.10
66835;HTU21D;53743;51.100;5.874;2024-03-25T05:15:09;4.21;86.99
66835;HTU21D;53743;51.100;5.874;2024-03-25T05:16:11;4.23;86.93
66835;HTU21D;53743;51.100;5.874;2024-03-25T05:17:12;4.19;86.91
66835;HTU21D;53743;51.100;5.874;2024-03-25T05:18:13;4.19;86.93
66835;HTU21D;53743;51.100;5.874;2024-03-25T05:19:14;4.18;86.83
66835;HTU21D;53743;51.100;5.874;2024-03-25T05:20:15;4.18;86.80
66835;HTU21D;53743;51.100;5.874;2024-03-25T05:21:16;4.17;86.70
66835;HTU21D;53743;51.100;5.874;2024-03-25T05:22:17;4.16;86.66
66835;HTU21D;53743;51.100;5.874;2024-03-25T05:23:18;4.16;86.58
66835;HTU21D;53743;51.100;5.874;2024-03-25T05:24:20;4.17;86.64
66835;HTU21D;53743;51.100;5.874;2024-03-25T05:25:21;4.16;86.58
66835;HTU21D;53743;51.100;5.874;2024-03-25T05:26:22;4.16;86.46
66835;HTU21D;53743;51.100;5.874;2024-03-25T05:27:23;4.16;86.51
66835;HTU21D;53743;51.100;5.874;2024-03-25T05:28:24;4.15;86.54
66835;HTU21D;53743;51.100;5.874;2024-03-25T05:29:25;4.15;86.61
66835;HTU21D;53743;51.100;5.874;2024-03-25T05:30:26;4.16;86.63
66835;HTU21D;53743;51.100;5.874;2024-03-25T05:31:29;4.15;86.70
66835;HTU21D;53743;51.100;5.874;2024-03-25T05:32:30;4.15;86.77
66835;HTU21D;53743;51.100;5.874;2024-03-25T05:33:31;4.17;86.85
66835;HTU21D;53743;51.100;5.874;2024-03-25T05:34:32;4.18;86.99
66835;HTU21D;53743;51.100;5.874;2024-03-25T05:35:33;4.19;86.99
66835;HTU21D;53743;51.100;5.874;2024-03-25T05:36:34;4.21;87.03
66835;HTU21D;53743;51.100;5.874;2024-03-25T05:37:35;4.21;86.96
66835;HTU21D;53743;51.100;5.874;2024-03-25T05:38:36;4.24;86.97
66835;HTU21D;53743;51.100;5.874;2024-03-25T05:39:37;4.26;86.94
66835;HTU21D;53743;51.100;5.874;2024-03-25T05:40:38;4.27;86.97
66835;HTU21D;53743;51.100;5.874;2024-03-25T05:41:39;4.31;87.07
66835;HTU21D;53743;51.100;5.874;2024-03-25T05:42:40;4.32;87.15
66835;HTU21D;53743;51.100;5.874;2024-03-25T05:43:45;4.34;87.25
66835;HTU21D;53743;51.100;5.874;2024-03-25T05:44:46;4.36;87.22
66835;HTU21D;53743;51.100;5.874;2024-03-25T05:45:50;4.39;87.23
66835;HTU21D;53743;51.100;5.874;2024-03-25T05:46:53;4.41;87.18
66835;HTU21D;53743;51.100;5.874;2024-03-25T05:47:54;4.44;87.16
66835;HTU21D;53743;51.100;5.874;2024-03-25T05:48:55;4.46;87.17
66835;HTU21D;53743;51.100;5.874;2024-03-25T05:49:56;4.50;87.14
66835;HTU21D;53743;51.100;5.874;2024-03-25T05:50:58;4.53;86.99
66835;HTU21D;53743;51.100;5.874;2024-03-25T05:52:00;4.56;86.97
66835;HTU21D;53743;51.100;5.874;2024-03-25T05:53:01;4.59;86.91
66835;HTU21D;53743;51.100;5.874;2024-03-25T05:54:02;4.62;86.87
66835;HTU21D;53743;51.100;5.874;2024-03-25T05:55:04;4.64;86.77
66835;HTU21D;53743;51.100;5.874;2024-03-25T05:56:05;4.68;86.57
66835;HTU21D;53743;51.100;5.874;2024-03-25T05:57:06;4.72;86.47
66835;HTU21D;53743;51.100;5.874;2024-03-25T05:58:08;4.75;86.32
66835;HTU21D;53743;51.100;5.874;2024-03-25T05:59:09;4.80;86.20
66835;HTU21D;53743;51.100;5.874;2024-03-25T06:00:11;4.83;86.04
66835;HTU21D;53743;51.100;5.874;2024-03-25T06:01:13;4.90;85.87
66835;HTU21D;53743;51.100;5.874;2024-03-25T06:02:16;4.96;85.71
66835;HTU21D;53743;51.100;5.874;2024-03-25T06:03:17;5.05;85.55
66835;HTU21D;53743;51.100;5.874;2024-03-25T06:04:18;5.17;85.29
66835;HTU21D;53743;51.100;5.874;2024-03-25T06:05:20;5.32;84.89
66835;HTU21D;53743;51.100;5.874;2024-03-25T06:06:21;5.49;84.26
66835;HTU21D;53743;51.100;5.874;2024-03-25T06:07:22;5.65;83.65
66835;HTU21D;53743;51.100;5.874;2024-03-25T06:08:23;5.81;83.12
66835;HTU21D;53743;51.100;5.874;2024-03-25T06:09:25;5.98;82.70
66835;HTU21D;53743;51.100;5.874;2024-03-25T06:10:26;6.15;0.00
66835;HTU21D;53743;51.100;5.874;2024-03-25T06:11:27;0.00;81.59
66835;HTU21D;53743;51.100;5.874;2024-03-25T06:12:28;6.44;81.53
66835;HTU21D;53743;51.100;5.874;2024-03-25T06:13:29;6.66;81.42
66835;HTU21D;53743;51.100;5.874;2024-03-25T06:14:30;6.86;81.29
66835;HTU21D;53743;51.100;5.874;2024-03-25T06:15:31;7.11;80.83
66835;HTU21D;53743;51.100;5.874;2024-03-25T06:16:32;7.26;79.88
66835;HTU21D;53743;51.100;5.874;2024-03-25T06:17:35;7.44;79.66
66835;HTU21D;53743;51.100;5.874;2024-03-25T06:18:36;7.67;79.86
66835;HTU21D;53743;51.100;5.874;2024-03-25T06:19:37;7.99;80.36
66835;HTU21D;53743;51.100;5.874;2024-03-25T06:20:38;8.37;80.40
66835;HTU21D;53743;51.100;5.874;2024-03-25T06:21:39;8.77;79.27
66835;HTU21D;53743;51.100;5.874;2024-03-25T06:22:40;9.16;78.10
66835;HTU21D;53743;51.100;5.874;2024-03-25T06:23:41;9.46;76.85
66835;HTU21D;53743;51.100;5.874;2024-03-25T06:24:42;9.72;75.42
66835;HTU21D;53743;51.100;5.874;2024-03-25T06:25:44;9.93;73.72
66835;HTU21D;53743;51.100;5.874;2024-03-25T06:26:45;10.11;72.63
66835;HTU21D;53743;51.100;5.874;2024-03-25T06:27:48;10.20;71.75
66835;HTU21D;53743;51.100;5.874;2024-03-25T06:28:49;10.29;71.71
66835;HTU21D;53743;51.100;5.874;2024-03-25T06:29:50;10.42;71.29
66835;HTU21D;53743;51.100;5.874;2024-03-25T06:30:52;10.52;70.54